Hlavní strana
METAR-TAF:

METAR-TAF

Letiště :

Mezinárodní letiště Káhira

Káhira, Egypt

zeměpisná šířka: 30-08N, zeměpisná délka: 031-24E, výška: 64 m

Aktuální stav počasí

Zpráva byla vytvořena před 31 minutami, v 21:30 UTC
Západní vítr 3 kt
Teplota 16°C
Vlhkost vzduchu 72%
Tlak 1020 hPa
Viditelnost 10 km a více
Polojasno ve výšce 2500 ft

METAR: HECA 282130Z 28003KT 9999 SCT025 16/11 Q1020 NOSIG

Čas: 00:01 (22:01 UTC)

Předpověď počasí

Zpráva byla vytvořena před 5 hodinami a 1 minutami, v 17:00 UTC
Předpověď platná od 28 v 18 UTC do 01 v 24 UTC
Západoseverozápadní vítr 9 kt
Viditelnost 10 km a více
Polojasno ve výšce 2000 ft
Dočasný
od 01 v 00 UTC do 01 v 08 UTC
vítr z různých směrů 3 kt
Viditelnost: 3000 m
kouřmo
Pravděpodobnost 40%
od 01 v 02 UTC do 01 v 07 UTC
Viditelnost: 1000 m

TAF: HECA 281700Z 2818/0124 30009KT 9999 SCT020 TEMPO 0100/0108 VRB03KT 3000 BR PROB40 0102/0107 1000

Stav a předpovědi počasí z více než 4 000 letišť (zprávy METAR a TAF).

Červené a žluté tečky na mapě představují dostupné meteorologické stanice.

Když kurzor umístíte na tečku, zobrazí se název stanice.

Pak kliknutím zobrazíte stav a předpověď počasí.

Chcete-li změnit mapu, kliknutím na zelené tlačítko se znaménkem +mapu přiblížíte, kliknutím na zelené tlačítko se znaménkem – mapu oddálíte a kliknutím na zelené šipky přejdete na sousední mapy.


METAR-TAF: